createdAt,value
2018-02-24T01:40:23.040Z,1027.24
2018-02-24T01:40:23.609Z,1027.22
2018-02-24T01:40:24.210Z,1027.22
2018-02-24T01:40:24.808Z,1027.22
2018-02-24T01:40:25.407Z,1027.23
2018-02-24T01:40:26.009Z,1027.21
2018-02-24T01:40:26.607Z,1027.19
2018-02-24T01:40:27.205Z,1027.20
2018-02-24T01:41:21.712Z,1027.25
2018-02-24T01:41:22.284Z,1027.24
2018-02-24T01:41:22.883Z,1027.23
2018-02-24T01:41:23.482Z,1027.24
2018-02-24T01:41:24.083Z,1027.25
2018-02-24T01:41:24.683Z,1027.25
2018-02-24T01:41:25.281Z,1027.22
2018-02-24T01:41:25.882Z,1027.28
2018-02-24T01:42:19.366Z,1027.21
2018-02-24T01:42:19.936Z,1027.26
2018-02-24T01:42:20.542Z,1027.26
2018-02-24T01:42:21.140Z,1027.24
2018-02-24T01:42:21.737Z,1027.26
2018-02-24T01:42:22.339Z,1027.22
2018-02-24T01:42:22.936Z,1027.21
2018-02-24T01:42:23.537Z,1027.23
2018-02-24T01:43:17.017Z,1027.24
2018-02-24T01:43:17.590Z,1027.23
2018-02-24T01:43:18.189Z,1027.23
2018-02-24T01:43:18.789Z,1027.24
2018-02-24T01:43:19.388Z,1027.26
2018-02-24T01:43:19.988Z,1027.25
2018-02-24T01:43:20.588Z,1027.23
2018-02-24T01:43:21.186Z,1027.20
2018-02-24T01:44:15.693Z,1027.24
2018-02-24T01:44:16.266Z,1027.21
2018-02-24T01:44:16.867Z,1027.22
2018-02-24T01:44:17.465Z,1027.20
2018-02-24T01:44:18.065Z,1027.23
2018-02-24T01:44:18.664Z,1027.19
2018-02-24T01:44:19.273Z,1027.23
2018-02-24T01:44:19.865Z,1027.23
2018-02-24T01:45:13.347Z,1027.22
2018-02-24T01:45:13.918Z,1027.24
2018-02-24T01:45:14.523Z,1027.19
2018-02-24T01:45:15.118Z,1027.23
2018-02-24T01:45:15.717Z,1027.20
2018-02-24T01:45:16.317Z,1027.20
2018-02-24T01:45:16.918Z,1027.21
2018-02-24T01:45:17.516Z,1027.23
2018-02-24T01:46:11.000Z,1027.26
2018-02-24T01:46:11.570Z,1027.22
2018-02-24T01:46:12.174Z,1027.19
2018-02-24T01:46:12.769Z,1027.23
2018-02-24T01:46:13.368Z,1027.24
2018-02-24T01:46:13.974Z,1027.21
2018-02-24T01:46:14.570Z,1027.24
2018-02-24T01:46:15.167Z,1027.24
2018-02-24T01:47:09.674Z,1027.24
2018-02-24T01:47:10.245Z,1027.23
2018-02-24T01:47:10.845Z,1027.23
2018-02-24T01:47:11.447Z,1027.23
2018-02-24T01:47:12.043Z,1027.21
2018-02-24T01:47:12.642Z,1027.22
2018-02-24T01:47:13.242Z,1027.22
2018-02-24T01:47:13.843Z,1027.21
2018-02-24T01:48:07.327Z,1027.26
2018-02-24T01:48:07.900Z,1027.24
2018-02-24T01:48:08.498Z,1027.26
2018-02-24T01:48:09.097Z,1027.22
2018-02-24T01:48:09.697Z,1027.24
2018-02-24T01:48:10.299Z,1027.25
2018-02-24T01:48:10.898Z,1027.23
2018-02-24T01:48:11.498Z,1027.20
2018-02-24T01:49:06.001Z,1027.25
2018-02-24T01:49:06.573Z,1027.24
2018-02-24T01:49:07.173Z,1027.26
2018-02-24T01:49:07.772Z,1027.23
2018-02-24T01:49:08.373Z,1027.27
2018-02-24T01:49:08.977Z,1027.26
2018-02-24T01:49:09.571Z,1027.25
2018-02-24T01:49:10.172Z,1027.24
2018-02-24T01:50:03.661Z,1027.29
2018-02-24T01:50:04.225Z,1027.28
2018-02-24T01:50:04.829Z,1027.26
2018-02-24T01:50:05.425Z,1027.21
2018-02-24T01:50:06.026Z,1027.25
2018-02-24T01:50:06.625Z,1027.26
2018-02-24T01:50:07.225Z,1027.24
2018-02-24T01:50:07.825Z,1027.24
2018-02-24T01:51:01.394Z,1027.25
2018-02-24T01:51:01.897Z,1027.26
2018-02-24T01:51:02.497Z,1027.24
2018-02-24T01:51:03.095Z,1027.24
2018-02-24T01:51:03.695Z,1027.22
2018-02-24T01:51:04.296Z,1027.25
2018-02-24T01:51:04.895Z,1027.27
2018-02-24T01:51:05.499Z,1027.26
2018-02-24T01:51:58.957Z,1027.28
2018-02-24T01:51:59.532Z,1027.24
2018-02-24T01:52:00.130Z,1027.26
2018-02-24T01:52:00.731Z,1027.27
2018-02-24T01:52:01.330Z,1027.22
2018-02-24T01:52:01.929Z,1027.26
2018-02-24T01:52:02.528Z,1027.26
2018-02-24T01:52:03.128Z,1027.24
2018-02-24T01:52:57.632Z,1027.17
2018-02-24T01:52:58.206Z,1027.18
2018-02-24T01:52:58.806Z,1027.18
2018-02-24T01:52:59.421Z,1027.18
2018-02-24T01:53:00.005Z,1027.18
2018-02-24T01:53:00.604Z,1027.17
2018-02-24T01:53:01.202Z,1027.22
2018-02-24T01:53:01.803Z,1027.21
2018-02-24T01:53:55.286Z,1027.19
2018-02-24T01:53:55.858Z,1027.15
2018-02-24T01:53:56.457Z,1027.16
2018-02-24T01:53:57.056Z,1027.17
2018-02-24T01:53:57.656Z,1027.14
2018-02-24T01:53:58.257Z,1027.21
2018-02-24T01:53:58.856Z,1027.22
2018-02-24T01:53:59.472Z,1027.21
2018-02-24T01:54:52.984Z,1027.20
2018-02-24T01:54:53.509Z,1027.19
2018-02-24T01:54:54.108Z,1027.20
2018-02-24T01:54:54.708Z,1027.21
2018-02-24T01:54:55.307Z,1027.18
2018-02-24T01:54:55.908Z,1027.20
2018-02-24T01:54:56.506Z,1027.22
2018-02-24T01:54:57.108Z,1027.18
2018-02-24T01:55:51.613Z,1027.23
2018-02-24T01:55:52.182Z,1027.21
2018-02-24T01:55:52.782Z,1027.24
2018-02-24T01:55:53.383Z,1027.21
2018-02-24T01:55:53.983Z,1027.20
2018-02-24T01:55:54.583Z,1027.20
2018-02-24T01:55:55.183Z,1027.23
2018-02-24T01:55:55.784Z,1027.23
2018-02-24T01:56:49.264Z,1027.19
2018-02-24T01:56:49.837Z,1027.17
2018-02-24T01:56:50.440Z,1027.19
2018-02-24T01:56:51.037Z,1027.20
2018-02-24T01:56:51.636Z,1027.19
2018-02-24T01:56:52.236Z,1027.21
2018-02-24T01:56:52.841Z,1027.18
2018-02-24T01:56:53.434Z,1027.18
2018-02-24T01:57:46.928Z,1027.19
2018-02-24T01:57:47.489Z,1027.17
2018-02-24T01:57:48.088Z,1027.19
2018-02-24T01:57:48.693Z,1027.18
2018-02-24T01:57:49.295Z,1027.21
2018-02-24T01:57:49.889Z,1027.17
2018-02-24T01:57:50.488Z,1027.17
2018-02-24T01:57:51.087Z,1027.16
2018-02-24T01:58:46.103Z,1027.21
2018-02-24T01:58:46.673Z,1027.19
2018-02-24T01:58:47.274Z,1027.16
2018-02-24T01:58:47.877Z,1027.14
2018-02-24T01:58:48.473Z,1027.10
2018-02-24T01:58:49.074Z,1027.16
2018-02-24T01:58:49.675Z,1027.20
2018-02-24T01:59:43.141Z,1027.23
2018-02-24T01:59:43.714Z,1027.20
2018-02-24T01:59:44.313Z,1027.22
2018-02-24T01:59:44.912Z,1027.19
2018-02-24T01:59:45.512Z,1027.20
2018-02-24T01:59:46.115Z,1027.18
2018-02-24T01:59:46.712Z,1027.21
2018-02-24T01:59:47.312Z,1027.19
2018-02-24T02:00:41.815Z,1027.18
2018-02-24T02:00:42.389Z,1027.20
2018-02-24T02:00:42.986Z,1027.19
2018-02-24T02:00:43.587Z,1027.19
2018-02-24T02:00:44.188Z,1027.18
2018-02-24T02:00:44.786Z,1027.20
2018-02-24T02:00:45.387Z,1027.19
2018-02-24T02:00:45.987Z,1027.22
2018-02-24T02:01:40.493Z,1027.21
2018-02-24T02:01:41.067Z,1027.23
2018-02-24T02:01:41.663Z,1027.21
2018-02-24T02:01:42.262Z,1027.16
2018-02-24T02:01:42.862Z,1027.17
2018-02-24T02:01:43.463Z,1027.21
2018-02-24T02:01:44.064Z,1027.19
2018-02-24T02:01:44.663Z,1027.17
2018-02-24T02:02:38.144Z,1027.13
2018-02-24T02:02:38.717Z,1027.12
2018-02-24T02:02:39.316Z,1027.15
2018-02-24T02:02:39.915Z,1027.15
2018-02-24T02:02:40.516Z,1027.12
2018-02-24T02:02:41.118Z,1027.17
2018-02-24T02:02:41.719Z,1027.12
2018-02-24T02:02:42.318Z,1027.17
2018-02-24T02:03:35.795Z,1027.16
2018-02-24T02:03:36.369Z,1027.17
2018-02-24T02:03:36.967Z,1027.13
2018-02-24T02:03:37.567Z,1027.18
2018-02-24T02:03:38.167Z,1027.13
2018-02-24T02:03:38.767Z,1027.20
2018-02-24T02:03:39.367Z,1027.14
2018-02-24T02:03:39.967Z,1027.21
2018-02-24T02:04:33.447Z,1027.13
2018-02-24T02:04:34.020Z,1027.17
2018-02-24T02:04:34.619Z,1027.16
2018-02-24T02:04:35.218Z,1027.18
2018-02-24T02:04:35.818Z,1027.17
2018-02-24T02:04:36.420Z,1027.17
2018-02-24T02:04:37.020Z,1027.17
2018-02-24T02:04:37.618Z,1027.17
2018-02-24T02:05:31.098Z,1027.19
2018-02-24T02:05:31.672Z,1027.19
2018-02-24T02:05:32.270Z,1027.15
2018-02-24T02:05:32.870Z,1027.19
2018-02-24T02:05:33.469Z,1027.20
2018-02-24T02:05:34.069Z,1027.19
2018-02-24T02:05:34.670Z,1027.21
2018-02-24T02:05:35.272Z,1027.19
2018-02-24T02:06:29.773Z,1027.16
2018-02-24T02:06:30.345Z,1027.17
2018-02-24T02:06:30.944Z,1027.16
2018-02-24T02:06:31.546Z,1027.18
2018-02-24T02:06:32.145Z,1027.17
2018-02-24T02:06:32.745Z,1027.14
2018-02-24T02:06:33.344Z,1027.16
2018-02-24T02:06:33.945Z,1027.15
2018-02-24T02:07:28.449Z,1027.12
2018-02-24T02:07:29.020Z,1027.14
2018-02-24T02:07:29.622Z,1027.13
2018-02-24T02:07:30.220Z,1027.17
2018-02-24T02:07:30.821Z,1027.12
2018-02-24T02:07:31.421Z,1027.14
2018-02-24T02:07:32.020Z,1027.12
2018-02-24T02:07:32.620Z,1027.16
2018-02-24T02:08:27.125Z,1027.14
2018-02-24T02:08:27.699Z,1027.14
2018-02-24T02:08:28.297Z,1027.11
2018-02-24T02:08:28.897Z,1027.13
2018-02-24T02:08:29.497Z,1027.12
2018-02-24T02:08:30.098Z,1027.13
2018-02-24T02:08:30.698Z,1027.17
2018-02-24T02:08:31.300Z,1027.16
2018-02-24T02:09:25.802Z,1027.16
2018-02-24T02:09:26.374Z,1027.13
2018-02-24T02:09:26.975Z,1027.15
2018-02-24T02:09:27.570Z,1027.16
2018-02-24T02:09:28.170Z,1027.17
2018-02-24T02:09:28.769Z,1027.14
2018-02-24T02:09:29.369Z,1027.09
2018-02-24T02:09:29.970Z,1027.13
2018-02-24T02:10:24.480Z,1027.15
2018-02-24T02:10:25.051Z,1027.19
2018-02-24T02:10:25.649Z,1027.18
2018-02-24T02:10:26.247Z,1027.15
2018-02-24T02:10:26.849Z,1027.18
2018-02-24T02:10:27.448Z,1027.15
2018-02-24T02:10:28.047Z,1027.16
2018-02-24T02:10:28.650Z,1027.18
2018-02-24T02:11:23.153Z,1027.15
2018-02-24T02:11:23.728Z,1027.17
2018-02-24T02:11:24.324Z,1027.15
2018-02-24T02:11:24.923Z,1027.16
2018-02-24T02:11:25.522Z,1027.13
2018-02-24T02:11:26.126Z,1027.13
2018-02-24T02:11:26.722Z,1027.15
2018-02-24T02:11:27.322Z,1027.12
2018-02-24T02:12:21.828Z,1027.18
2018-02-24T02:12:22.402Z,1027.15
2018-02-24T02:12:22.999Z,1027.15
2018-02-24T02:12:23.600Z,1027.12
2018-02-24T02:12:24.198Z,1027.13
2018-02-24T02:12:24.799Z,1027.14
2018-02-24T02:12:25.398Z,1027.14
2018-02-24T02:12:25.999Z,1027.11
2018-02-24T02:13:20.503Z,1027.10
2018-02-24T02:13:21.077Z,1027.11
2018-02-24T02:13:21.675Z,1027.14
2018-02-24T02:13:22.276Z,1027.11
2018-02-24T02:13:22.874Z,1027.11
2018-02-24T02:13:23.474Z,1027.13
2018-02-24T02:13:24.074Z,1027.15
2018-02-24T02:13:24.675Z,1027.12
2018-02-24T02:14:19.179Z,1027.12
2018-02-24T02:14:19.753Z,1027.13
2018-02-24T02:14:20.355Z,1027.12
2018-02-24T02:14:20.950Z,1027.14
2018-02-24T02:14:21.551Z,1027.12
2018-02-24T02:14:22.159Z,1027.13
2018-02-24T02:14:22.750Z,1027.12
2018-02-24T02:14:23.349Z,1027.10
2018-02-24T02:15:16.831Z,1027.12
2018-02-24T02:15:17.409Z,1027.11
2018-02-24T02:15:18.002Z,1027.09
2018-02-24T02:15:18.604Z,1027.14
2018-02-24T02:15:19.202Z,1027.13
2018-02-24T02:15:19.802Z,1027.09
2018-02-24T02:15:20.411Z,1027.12
2018-02-24T02:15:21.008Z,1027.05
2018-02-24T02:16:15.510Z,1027.12
2018-02-24T02:16:16.080Z,1027.14
2018-02-24T02:16:16.678Z,1027.11
2018-02-24T02:16:17.278Z,1027.10
2018-02-24T02:16:17.876Z,1027.14
2018-02-24T02:16:18.477Z,1027.15
2018-02-24T02:16:19.078Z,1027.14
2018-02-24T02:16:19.677Z,1027.12
2018-02-24T02:17:14.181Z,1027.08
2018-02-24T02:17:14.755Z,1027.10
2018-02-24T02:17:15.352Z,1027.09
2018-02-24T02:17:15.953Z,1027.11
2018-02-24T02:17:16.553Z,1027.08
2018-02-24T02:17:17.152Z,1027.08
2018-02-24T02:17:17.755Z,1027.09
2018-02-24T02:17:18.358Z,1027.09
2018-02-24T02:18:12.858Z,1027.07
2018-02-24T02:18:13.431Z,1027.09
2018-02-24T02:18:14.038Z,1027.06
2018-02-24T02:18:14.632Z,1027.03
2018-02-24T02:18:15.229Z,1027.09
2018-02-24T02:18:15.830Z,1027.08
2018-02-24T02:18:16.429Z,1027.08
2018-02-24T02:18:17.028Z,1027.13
2018-02-24T02:19:11.533Z,1027.12
2018-02-24T02:19:12.107Z,1027.06
2018-02-24T02:19:12.708Z,1027.09
2018-02-24T02:19:13.304Z,1027.09
2018-02-24T02:19:13.906Z,1027.10
2018-02-24T02:19:14.504Z,1027.13
2018-02-24T02:19:15.105Z,1027.11
2018-02-24T02:19:15.704Z,1027.08
2018-02-24T02:20:10.208Z,1027.10
2018-02-24T02:20:10.781Z,1027.12
2018-02-24T02:20:11.382Z,1027.13
2018-02-24T02:20:11.980Z,1027.10
2018-02-24T02:20:12.579Z,1027.09
2018-02-24T02:20:13.180Z,1027.11
2018-02-24T02:20:13.780Z,1027.07
2018-02-24T02:20:14.385Z,1027.05
2018-02-24T02:21:08.883Z,1027.02
2018-02-24T02:21:09.458Z,1027.09
2018-02-24T02:21:10.055Z,1027.08
2018-02-24T02:21:10.656Z,1027.08
2018-02-24T02:21:11.257Z,1027.08
2018-02-24T02:21:11.855Z,1027.12
2018-02-24T02:21:12.455Z,1027.09
2018-02-24T02:21:13.056Z,1027.12
2018-02-24T02:22:06.538Z,1027.09
2018-02-24T02:22:07.112Z,1027.10
2018-02-24T02:22:07.707Z,1027.09
2018-02-24T02:22:08.307Z,1027.06
2018-02-24T02:22:08.907Z,1027.06
2018-02-24T02:22:09.505Z,1027.06
2018-02-24T02:22:10.107Z,1027.07
2018-02-24T02:22:10.707Z,1027.09
2018-02-24T02:23:04.191Z,1027.10
2018-02-24T02:23:04.761Z,1027.07
2018-02-24T02:23:05.361Z,1027.09
2018-02-24T02:23:05.959Z,1027.08
2018-02-24T02:23:06.560Z,1027.09
2018-02-24T02:23:07.159Z,1027.10
2018-02-24T02:23:07.759Z,1027.10
2018-02-24T02:23:08.360Z,1027.06
2018-02-24T02:24:02.865Z,1027.10
2018-02-24T02:24:03.438Z,1027.12
2018-02-24T02:24:04.036Z,1027.07
2018-02-24T02:24:04.634Z,1027.09
2018-02-24T02:24:05.236Z,1027.07
2018-02-24T02:24:05.835Z,1027.11
2018-02-24T02:24:06.435Z,1027.09
2018-02-24T02:24:07.039Z,1027.07
2018-02-24T02:25:00.517Z,1027.10
2018-02-24T02:25:01.088Z,1027.11
2018-02-24T02:25:01.687Z,1027.08
2018-02-24T02:25:02.288Z,1027.12
2018-02-24T02:25:02.892Z,1027.10
2018-02-24T02:25:03.486Z,1027.09
2018-02-24T02:25:04.086Z,1027.13
2018-02-24T02:25:04.687Z,1027.13
2018-02-24T02:25:58.169Z,1027.10
2018-02-24T02:25:58.739Z,1027.13
2018-02-24T02:25:59.340Z,1027.13
2018-02-24T02:25:59.939Z,1027.13
2018-02-24T02:26:00.539Z,1027.12
2018-02-24T02:26:01.138Z,1027.12
2018-02-24T02:26:01.739Z,1027.14
2018-02-24T02:26:02.338Z,1027.16
2018-02-24T02:26:55.818Z,1027.12
2018-02-24T02:26:56.391Z,1027.12
2018-02-24T02:26:56.991Z,1027.11
2018-02-24T02:26:57.590Z,1027.10
2018-02-24T02:26:58.192Z,1027.09
2018-02-24T02:26:58.790Z,1027.12
2018-02-24T02:26:59.394Z,1027.11
2018-02-24T02:26:59.994Z,1027.11
2018-02-24T02:27:53.470Z,1027.14
2018-02-24T02:27:54.043Z,1027.13
2018-02-24T02:27:54.642Z,1027.15
2018-02-24T02:27:55.243Z,1027.11
2018-02-24T02:27:55.846Z,1027.11
2018-02-24T02:27:56.444Z,1027.15
2018-02-24T02:27:57.040Z,1027.14
2018-02-24T02:27:57.641Z,1027.12
2018-02-24T02:28:51.123Z,1027.12
2018-02-24T02:28:51.695Z,1027.13
2018-02-24T02:28:52.294Z,1027.13
2018-02-24T02:28:52.894Z,1027.12
2018-02-24T02:28:53.494Z,1027.15
2018-02-24T02:28:54.092Z,1027.15
2018-02-24T02:28:54.692Z,1027.12
2018-02-24T02:28:55.293Z,1027.11
2018-02-24T02:29:49.797Z,1027.12
2018-02-24T02:29:50.373Z,1027.11
2018-02-24T02:29:50.969Z,1027.16
2018-02-24T02:29:51.569Z,1027.14
2018-02-24T02:29:52.169Z,1027.12
2018-02-24T02:29:52.769Z,1027.11
2018-02-24T02:29:53.368Z,1027.15
2018-02-24T02:29:53.968Z,1027.10
2018-02-24T02:30:48.472Z,1027.15
2018-02-24T02:30:49.045Z,1027.10
2018-02-24T02:30:49.645Z,1027.16
2018-02-24T02:30:50.246Z,1027.15
2018-02-24T02:30:50.846Z,1027.15
2018-02-24T02:30:51.443Z,1027.13
2018-02-24T02:30:52.046Z,1027.12
2018-02-24T02:30:52.644Z,1027.12
2018-02-24T02:31:46.127Z,1027.15
2018-02-24T02:31:46.698Z,1027.18
2018-02-24T02:31:47.299Z,1027.15
2018-02-24T02:31:47.906Z,1027.13
2018-02-24T02:31:48.498Z,1027.10
2018-02-24T02:31:49.099Z,1027.09
2018-02-24T02:31:49.699Z,1027.06
2018-02-24T02:31:50.297Z,1027.14
2018-02-24T02:32:43.782Z,1027.11
2018-02-24T02:32:44.350Z,1027.13
2018-02-24T02:32:44.948Z,1027.07
2018-02-24T02:32:45.549Z,1027.12
2018-02-24T02:32:46.148Z,1027.16
2018-02-24T02:32:46.752Z,1027.11
2018-02-24T02:32:47.349Z,1027.10
2018-02-24T02:32:47.948Z,1027.14
2018-02-24T02:33:41.431Z,1027.15
2018-02-24T02:33:42.001Z,1027.12
2018-02-24T02:33:42.603Z,1027.16
2018-02-24T02:33:43.202Z,1027.11
2018-02-24T02:33:43.800Z,1027.13
2018-02-24T02:33:44.402Z,1027.12
2018-02-24T02:33:45.000Z,1027.14
2018-02-24T02:33:45.621Z,1027.10
2018-02-24T02:34:40.106Z,1027.15
2018-02-24T02:34:40.680Z,1027.16
2018-02-24T02:34:41.282Z,1027.16
2018-02-24T02:34:41.877Z,1027.13
2018-02-24T02:34:42.481Z,1027.09
2018-02-24T02:34:43.075Z,1027.12
2018-02-24T02:34:43.675Z,1027.14
2018-02-24T02:34:44.274Z,1027.11
2018-02-24T02:35:38.779Z,1027.16
2018-02-24T02:35:39.354Z,1027.15
2018-02-24T02:35:39.951Z,1027.13
2018-02-24T02:35:40.559Z,1027.09
2018-02-24T02:35:41.152Z,1027.13
2018-02-24T02:35:41.751Z,1027.10
2018-02-24T02:35:42.351Z,1027.10
2018-02-24T02:35:42.950Z,1027.18
2018-02-24T02:36:37.461Z,1027.06
2018-02-24T02:36:38.026Z,1027.09
2018-02-24T02:36:38.635Z,1027.09
2018-02-24T02:36:39.227Z,1027.11
2018-02-24T02:36:39.826Z,1027.09
2018-02-24T02:36:40.425Z,1027.11
2018-02-24T02:36:41.026Z,1027.10
2018-02-24T02:36:41.628Z,1027.10
2018-02-24T02:37:35.109Z,1027.13
2018-02-24T02:37:35.681Z,1027.11
2018-02-24T02:37:36.281Z,1027.12
2018-02-24T02:37:36.879Z,1027.13
2018-02-24T02:37:37.479Z,1027.17
2018-02-24T02:37:38.079Z,1027.10
2018-02-24T02:37:38.684Z,1027.08
2018-02-24T02:37:39.278Z,1027.08
2018-02-24T02:55:08.805Z,1027.20
2018-02-24T02:55:09.377Z,1027.21
2018-02-24T02:55:09.979Z,1027.20
2018-02-24T02:55:10.579Z,1027.17
2018-02-24T02:55:11.176Z,1027.16
2018-02-24T02:55:11.779Z,1027.15
2018-02-24T02:55:12.382Z,1027.18
2018-02-24T02:55:12.972Z,1027.17
2018-02-24T02:56:06.459Z,1027.16
2018-02-24T02:56:07.032Z,1027.17
2018-02-24T02:56:07.633Z,1027.17
2018-02-24T02:56:08.231Z,1027.17
2018-02-24T02:56:08.831Z,1027.20
2018-02-24T02:56:09.432Z,1027.19
2018-02-24T02:56:10.029Z,1027.21
2018-02-24T02:57:23.569Z,1027.16
2018-02-24T02:57:24.140Z,1027.18
2018-02-24T02:57:24.750Z,1027.16
2018-02-24T02:57:25.340Z,1027.17
2018-02-24T02:57:25.939Z,1027.17
2018-02-24T02:57:26.539Z,1027.19
2018-02-24T02:57:27.140Z,1027.16
2018-02-24T02:57:27.739Z,1027.16
2018-02-24T02:58:22.242Z,1027.21
2018-02-24T02:58:22.815Z,1027.19
2018-02-24T02:58:23.413Z,1027.18
2018-02-24T02:58:24.014Z,1027.20
2018-02-24T02:58:24.617Z,1027.17
2018-02-24T02:58:25.215Z,1027.16
2018-02-24T02:58:25.814Z,1027.20
2018-02-24T02:58:26.414Z,1027.18
2018-02-24T02:59:19.898Z,1027.18
2018-02-24T02:59:20.469Z,1027.17
2018-02-24T02:59:21.068Z,1027.16
2018-02-24T02:59:21.671Z,1027.18
2018-02-24T02:59:22.267Z,1027.20
2018-02-24T02:59:22.866Z,1027.17
2018-02-24T02:59:23.466Z,1027.17
2018-02-24T02:59:24.067Z,1027.17
2018-02-24T03:00:17.548Z,1027.19
2018-02-24T03:00:18.128Z,1027.19
2018-02-24T03:00:18.720Z,1027.20
2018-02-24T03:00:19.333Z,1027.17
2018-02-24T03:00:19.919Z,1027.18
2018-02-24T03:00:20.519Z,1027.19
2018-02-24T03:00:21.119Z,1027.14
2018-02-24T03:00:21.719Z,1027.17
2018-02-24T03:01:15.200Z,1027.14
2018-02-24T03:01:15.770Z,1027.16
2018-02-24T03:01:16.374Z,1027.17
2018-02-24T03:01:16.971Z,1027.19
2018-02-24T03:01:17.570Z,1027.18
2018-02-24T03:01:18.171Z,1027.16
2018-02-24T03:01:18.770Z,1027.16
2018-02-24T03:01:19.370Z,1027.20
2018-02-24T03:02:12.851Z,1027.18
2018-02-24T03:02:13.426Z,1027.14
2018-02-24T03:02:14.023Z,1027.17
2018-02-24T03:02:14.624Z,1027.18
2018-02-24T03:02:15.223Z,1027.19
2018-02-24T03:02:15.827Z,1027.15
2018-02-24T03:02:16.424Z,1027.13
2018-02-24T03:02:17.024Z,1027.17
2018-02-24T03:03:11.529Z,1027.21
2018-02-24T03:03:12.100Z,1027.18
2018-02-24T03:03:12.699Z,1027.18
2018-02-24T03:03:13.297Z,1027.19
2018-02-24T03:03:13.898Z,1027.20
2018-02-24T03:03:14.499Z,1027.19
2018-02-24T03:03:15.098Z,1027.18
2018-02-24T03:03:15.697Z,1027.11
2018-02-24T03:04:10.202Z,1027.14
2018-02-24T03:04:10.776Z,1027.18
2018-02-24T03:04:11.375Z,1027.15
2018-02-24T03:04:11.975Z,1027.17
2018-02-24T03:04:12.573Z,1027.17
2018-02-24T03:04:13.174Z,1027.21
2018-02-24T03:04:13.773Z,1027.16
2018-02-24T03:04:14.375Z,1027.17
2018-02-24T03:05:07.857Z,1027.22
2018-02-24T03:05:08.427Z,1027.19
2018-02-24T03:05:09.036Z,1027.18
2018-02-24T03:05:09.628Z,1027.17
2018-02-24T03:05:10.228Z,1027.18
2018-02-24T03:05:10.826Z,1027.18
2018-02-24T03:05:11.426Z,1027.19
2018-02-24T03:05:12.027Z,1027.18
2018-02-24T03:06:06.530Z,1027.18
2018-02-24T03:06:07.106Z,1027.18
2018-02-24T03:06:07.706Z,1027.17
2018-02-24T03:06:08.306Z,1027.15
2018-02-24T03:06:08.901Z,1027.15
2018-02-24T03:06:09.500Z,1027.13
2018-02-24T03:06:10.099Z,1027.16
2018-02-24T03:06:10.699Z,1027.15
2018-02-24T03:07:05.206Z,1027.24
2018-02-24T03:07:05.782Z,1027.23
2018-02-24T03:07:06.378Z,1027.22
2018-02-24T03:07:06.977Z,1027.18
2018-02-24T03:07:07.577Z,1027.23
2018-02-24T03:07:08.176Z,1027.21
2018-02-24T03:07:08.776Z,1027.22
2018-02-24T03:07:09.377Z,1027.20
2018-02-24T03:08:02.859Z,1027.21
2018-02-24T03:08:03.434Z,1027.15
2018-02-24T03:08:04.029Z,1027.23
2018-02-24T03:08:04.633Z,1027.21
2018-02-24T03:08:05.230Z,1027.17
2018-02-24T03:08:05.830Z,1027.20
2018-02-24T03:08:06.428Z,1027.18
2018-02-24T03:08:07.030Z,1027.20
2018-02-24T03:09:00.510Z,1027.22
2018-02-24T03:09:01.085Z,1027.22
2018-02-24T03:09:01.683Z,1027.19
2018-02-24T03:09:02.289Z,1027.21
2018-02-24T03:09:02.882Z,1027.21
2018-02-24T03:09:03.484Z,1027.23
2018-02-24T03:09:04.088Z,1027.22
2018-02-24T03:09:04.681Z,1027.21
2018-02-24T03:10:10.862Z,1027.24
2018-02-24T03:10:11.433Z,1027.18
2018-02-24T03:10:12.030Z,1027.22
2018-02-24T03:10:12.634Z,1027.20
2018-02-24T03:10:13.230Z,1027.25
2018-02-24T03:10:13.828Z,1027.25
2018-02-24T03:10:14.428Z,1027.24
2018-02-24T03:10:15.031Z,1027.21
2018-02-24T03:11:09.535Z,1027.25
2018-02-24T03:11:10.108Z,1027.22
2018-02-24T03:11:10.706Z,1027.23
2018-02-24T03:11:11.306Z,1027.20
2018-02-24T03:11:11.905Z,1027.23
2018-02-24T03:11:12.504Z,1027.22
2018-02-24T03:11:13.105Z,1027.21
2018-02-24T03:11:13.707Z,1027.24
2018-02-24T03:12:08.209Z,1027.20
2018-02-24T03:12:08.784Z,1027.22
2018-02-24T03:12:09.380Z,1027.21
2018-02-24T03:12:09.981Z,1027.20
2018-02-24T03:12:10.579Z,1027.25
2018-02-24T03:12:11.180Z,1027.22
2018-02-24T03:12:11.780Z,1027.22
2018-02-24T03:12:12.383Z,1027.19
2018-02-24T03:13:05.863Z,1027.19
2018-02-24T03:13:06.436Z,1027.23
2018-02-24T03:13:07.034Z,1027.24
2018-02-24T03:13:07.674Z,1027.20
2018-02-24T03:13:08.232Z,1027.21
2018-02-24T03:13:08.832Z,1027.19
2018-02-24T03:13:09.432Z,1027.17
2018-02-24T03:13:10.033Z,1027.19
2018-02-24T03:14:03.522Z,1027.25
2018-02-24T03:14:04.087Z,1027.25
2018-02-24T03:14:04.685Z,1027.19
2018-02-24T03:14:05.285Z,1027.24
2018-02-24T03:14:05.883Z,1027.24
2018-02-24T03:14:06.491Z,1027.27
2018-02-24T03:14:07.084Z,1027.24
2018-02-24T03:14:07.684Z,1027.22
2018-02-24T03:15:02.702Z,1027.24
2018-02-24T03:15:03.275Z,1027.20
2018-02-24T03:15:03.873Z,1027.20
2018-02-24T03:15:04.487Z,1027.23
2018-02-24T03:15:05.071Z,1027.19
2018-02-24T03:15:05.675Z,1027.20
2018-02-24T03:15:06.272Z,1027.23
2018-02-24T03:15:59.738Z,1027.12
2018-02-24T03:16:00.317Z,1027.12
2018-02-24T03:16:00.910Z,1027.13
2018-02-24T03:16:01.511Z,1027.18
2018-02-24T03:16:02.110Z,1027.12
2018-02-24T03:16:02.710Z,1027.13
2018-02-24T03:16:03.309Z,1027.12
2018-02-24T03:16:03.910Z,1027.08
2018-02-24T03:16:58.414Z,1027.10
2018-02-24T03:16:58.991Z,1027.12
2018-02-24T03:16:59.593Z,1027.13
2018-02-24T03:17:00.185Z,1027.07
2018-02-24T03:17:00.785Z,1027.14
2018-02-24T03:17:01.385Z,1027.10
2018-02-24T03:17:01.985Z,1027.11
2018-02-24T03:17:02.587Z,1027.12
2018-02-24T03:17:56.064Z,1027.15
2018-02-24T03:17:56.640Z,1027.13
2018-02-24T03:17:57.237Z,1027.11
2018-02-24T03:17:57.838Z,1027.11
2018-02-24T03:17:58.439Z,1027.15
2018-02-24T03:17:59.037Z,1027.16
2018-02-24T03:17:59.636Z,1027.16
2018-02-24T03:18:00.237Z,1027.15
2018-02-24T03:18:53.719Z,1027.19
2018-02-24T03:18:54.292Z,1027.22
2018-02-24T03:18:54.890Z,1027.18
2018-02-24T03:18:55.491Z,1027.18
2018-02-24T03:18:56.089Z,1027.18
2018-02-24T03:18:56.687Z,1027.13
2018-02-24T03:18:57.290Z,1027.16
2018-02-24T03:18:57.888Z,1027.17
2018-02-24T03:19:51.369Z,1027.20
2018-02-24T03:19:51.945Z,1027.17
2018-02-24T03:19:52.542Z,1027.20
2018-02-24T03:19:53.141Z,1027.17
2018-02-24T03:19:53.741Z,1027.17
2018-02-24T03:19:54.344Z,1027.19
2018-02-24T03:19:54.940Z,1027.16
2018-02-24T03:19:55.541Z,1027.21
2018-02-24T03:20:50.045Z,1027.26
2018-02-24T03:20:50.619Z,1027.21
2018-02-24T03:20:51.216Z,1027.22
2018-02-24T03:20:51.815Z,1027.25
2018-02-24T03:20:52.418Z,1027.21
2018-02-24T03:20:53.016Z,1027.23
2018-02-24T03:20:53.616Z,1027.24
2018-02-24T03:20:54.216Z,1027.21
2018-02-24T03:21:47.697Z,1027.28
2018-02-24T03:21:48.270Z,1027.25
2018-02-24T03:21:48.868Z,1027.20
2018-02-24T03:21:49.469Z,1027.23
2018-02-24T03:21:50.068Z,1027.26
2018-02-24T03:21:50.667Z,1027.29
2018-02-24T03:21:51.267Z,1027.28
2018-02-24T03:21:51.868Z,1027.24
2018-02-24T03:22:46.372Z,1027.26
2018-02-24T03:22:46.945Z,1027.27
2018-02-24T03:22:47.543Z,1027.25
2018-02-24T03:22:48.142Z,1027.27
2018-02-24T03:22:48.744Z,1027.26
2018-02-24T03:22:49.345Z,1027.26
2018-02-24T03:22:49.945Z,1027.23
2018-02-24T03:22:50.543Z,1027.25
2018-02-24T03:23:44.025Z,1027.31
2018-02-24T03:23:44.598Z,1027.29
2018-02-24T03:23:45.196Z,1027.28
2018-02-24T03:23:45.794Z,1027.26
2018-02-24T03:23:46.394Z,1027.28
2018-02-24T03:23:46.993Z,1027.26
2018-02-24T03:23:47.593Z,1027.28
2018-02-24T03:23:48.195Z,1027.27
2018-02-24T03:24:42.700Z,1027.28
2018-02-24T03:24:43.271Z,1027.26
2018-02-24T03:24:43.872Z,1027.27
2018-02-24T03:24:44.482Z,1027.27
2018-02-24T03:24:45.068Z,1027.24
2018-02-24T03:24:45.668Z,1027.27
2018-02-24T03:24:46.268Z,1027.29
2018-02-24T03:24:46.868Z,1027.25
2018-02-24T03:25:40.351Z,1027.29